sensor_id;sensor_type;location;lat;lon;timestamp;P1;durP1;ratioP1;P2;durP2;ratioP2
32976;SDS011;72327;50.842;4.450;2023-09-19T00:00:05;25.77;;;3.92;;
32976;SDS011;72327;50.842;4.450;2023-09-19T00:02:32;20.25;;;3.58;;
32976;SDS011;72327;50.842;4.450;2023-09-19T00:04:58;28.42;;;4.20;;
32976;SDS011;72327;50.842;4.450;2023-09-19T00:07:24;25.92;;;3.58;;
32976;SDS011;72327;50.842;4.450;2023-09-19T00:09:49;31.02;;;4.82;;
32976;SDS011;72327;50.842;4.450;2023-09-19T00:12:15;22.13;;;3.72;;
32976;SDS011;72327;50.842;4.450;2023-09-19T00:14:40;15.30;;;3.28;;
32976;SDS011;72327;50.842;4.450;2023-09-19T00:17:06;21.75;;;4.78;;
32976;SDS011;72327;50.842;4.450;2023-09-19T00:19:32;34.13;;;4.90;;
32976;SDS011;72327;50.842;4.450;2023-09-19T00:21:58;24.77;;;4.18;;
32976;SDS011;72327;50.842;4.450;2023-09-19T00:24:23;20.50;;;4.45;;
32976;SDS011;72327;50.842;4.450;2023-09-19T00:26:49;25.15;;;4.43;;
32976;SDS011;72327;50.842;4.450;2023-09-19T00:29:15;19.17;;;3.58;;
32976;SDS011;72327;50.842;4.450;2023-09-19T00:31:44;22.90;;;5.03;;
32976;SDS011;72327;50.842;4.450;2023-09-19T00:34:10;18.50;;;4.18;;
32976;SDS011;72327;50.842;4.450;2023-09-19T00:36:39;24.20;;;4.50;;
32976;SDS011;72327;50.842;4.450;2023-09-19T00:39:05;18.35;;;3.60;;
32976;SDS011;72327;50.842;4.450;2023-09-19T00:41:34;28.00;;;4.15;;
32976;SDS011;72327;50.842;4.450;2023-09-19T00:44:03;19.02;;;4.68;;
32976;SDS011;72327;50.842;4.450;2023-09-19T00:46:29;22.77;;;4.57;;
32976;SDS011;72327;50.842;4.450;2023-09-19T00:48:57;23.20;;;4.45;;
32976;SDS011;72327;50.842;4.450;2023-09-19T00:51:24;21.00;;;4.30;;
32976;SDS011;72327;50.842;4.450;2023-09-19T00:53:52;22.33;;;3.78;;
32976;SDS011;72327;50.842;4.450;2023-09-19T00:56:18;20.08;;;3.83;;
32976;SDS011;72327;50.842;4.450;2023-09-19T00:58:45;26.08;;;4.93;;
32976;SDS011;72327;50.842;4.450;2023-09-19T01:01:11;25.73;;;4.43;;
32976;SDS011;72327;50.842;4.450;2023-09-19T01:03:39;19.30;;;3.47;;
32976;SDS011;72327;50.842;4.450;2023-09-19T01:06:09;17.00;;;3.67;;
32976;SDS011;72327;50.842;4.450;2023-09-19T01:08:35;20.33;;;3.78;;
32976;SDS011;72327;50.842;4.450;2023-09-19T01:14:00;21.95;;;4.05;;
32976;SDS011;72327;50.842;4.450;2023-09-19T01:25:07;19.33;;;3.92;;
32976;SDS011;72327;50.842;4.450;2023-09-19T01:30:42;25.17;;;4.32;;
32976;SDS011;72327;50.842;4.450;2023-09-19T01:33:09;22.38;;;5.75;;
32976;SDS011;72327;50.842;4.450;2023-09-19T01:35:39;22.85;;;4.13;;
32976;SDS011;72327;50.842;4.450;2023-09-19T01:38:08;17.35;;;4.00;;
32976;SDS011;72327;50.842;4.450;2023-09-19T01:40:43;22.58;;;4.53;;
32976;SDS011;72327;50.842;4.450;2023-09-19T01:51:01;23.23;;;4.18;;
32976;SDS011;72327;50.842;4.450;2023-09-19T01:54:15;21.85;;;4.45;;
32976;SDS011;72327;50.842;4.450;2023-09-19T01:56:29;16.65;;;3.90;;
32976;SDS011;72327;50.842;4.450;2023-09-19T01:59:02;22.52;;;4.47;;
32976;SDS011;72327;50.842;4.450;2023-09-19T02:01:32;20.80;;;4.88;;
32976;SDS011;72327;50.842;4.450;2023-09-19T02:04:00;28.60;;;4.55;;
32976;SDS011;72327;50.842;4.450;2023-09-19T02:06:26;20.80;;;4.13;;
32976;SDS011;72327;50.842;4.450;2023-09-19T02:08:53;18.88;;;4.43;;
32976;SDS011;72327;50.842;4.450;2023-09-19T02:11:19;29.42;;;4.85;;
32976;SDS011;72327;50.842;4.450;2023-09-19T02:13:44;19.77;;;4.03;;
32976;SDS011;72327;50.842;4.450;2023-09-19T02:16:10;25.58;;;5.15;;
32976;SDS011;72327;50.842;4.450;2023-09-19T02:18:37;20.25;;;3.95;;
32976;SDS011;72327;50.842;4.450;2023-09-19T02:21:04;29.58;;;5.75;;
32976;SDS011;72327;50.842;4.450;2023-09-19T02:23:31;26.83;;;5.00;;
32976;SDS011;72327;50.842;4.450;2023-09-19T02:25:58;30.25;;;5.20;;
32976;SDS011;72327;50.842;4.450;2023-09-19T02:28:25;21.05;;;4.15;;
32976;SDS011;72327;50.842;4.450;2023-09-19T02:31:01;26.40;;;5.35;;
32976;SDS011;72327;50.842;4.450;2023-09-19T02:33:27;27.17;;;4.97;;
32976;SDS011;72327;50.842;4.450;2023-09-19T02:35:57;23.35;;;4.82;;
32976;SDS011;72327;50.842;4.450;2023-09-19T02:38:24;22.20;;;5.35;;
32976;SDS011;72327;50.842;4.450;2023-09-19T02:40:51;25.92;;;4.78;;
32976;SDS011;72327;50.842;4.450;2023-09-19T02:43:17;23.17;;;4.00;;
32976;SDS011;72327;50.842;4.450;2023-09-19T02:45:44;23.60;;;4.00;;
32976;SDS011;72327;50.842;4.450;2023-09-19T02:48:11;19.83;;;5.15;;
32976;SDS011;72327;50.842;4.450;2023-09-19T02:50:37;19.23;;;4.03;;
32976;SDS011;72327;50.842;4.450;2023-09-19T02:53:05;24.45;;;4.68;;
32976;SDS011;72327;50.842;4.450;2023-09-19T02:55:31;33.85;;;5.63;;
32976;SDS011;72327;50.842;4.450;2023-09-19T02:57:57;18.98;;;4.35;;
32976;SDS011;72327;50.842;4.450;2023-09-19T03:00:23;24.70;;;4.53;;
32976;SDS011;72327;50.842;4.450;2023-09-19T03:02:50;24.40;;;4.30;;
32976;SDS011;72327;50.842;4.450;2023-09-19T03:05:18;23.20;;;4.07;;
32976;SDS011;72327;50.842;4.450;2023-09-19T03:07:44;19.33;;;3.78;;
32976;SDS011;72327;50.842;4.450;2023-09-19T03:10:20;22.63;;;4.50;;
32976;SDS011;72327;50.842;4.450;2023-09-19T03:12:46;24.10;;;4.90;;
32976;SDS011;72327;50.842;4.450;2023-09-19T03:15:13;18.35;;;4.10;;
32976;SDS011;72327;50.842;4.450;2023-09-19T03:17:43;27.13;;;4.43;;
32976;SDS011;72327;50.842;4.450;2023-09-19T03:20:10;20.35;;;4.00;;
32976;SDS011;72327;50.842;4.450;2023-09-19T03:22:38;24.42;;;4.43;;
32976;SDS011;72327;50.842;4.450;2023-09-19T03:25:05;21.27;;;4.18;;
32976;SDS011;72327;50.842;4.450;2023-09-19T03:27:33;21.77;;;4.20;;
32976;SDS011;72327;50.842;4.450;2023-09-19T03:29:59;17.52;;;3.60;;
32976;SDS011;72327;50.842;4.450;2023-09-19T03:32:25;16.15;;;4.05;;
32976;SDS011;72327;50.842;4.450;2023-09-19T03:34:51;19.55;;;4.10;;
32976;SDS011;72327;50.842;4.450;2023-09-19T03:37:17;22.20;;;4.40;;
32976;SDS011;72327;50.842;4.450;2023-09-19T03:39:43;17.08;;;4.18;;
32976;SDS011;72327;50.842;4.450;2023-09-19T03:42:08;24.70;;;4.53;;
32976;SDS011;72327;50.842;4.450;2023-09-19T03:44:34;18.83;;;3.90;;
32976;SDS011;72327;50.842;4.450;2023-09-19T03:47:00;24.13;;;4.40;;
32976;SDS011;72327;50.842;4.450;2023-09-19T03:49:26;17.38;;;4.10;;
32976;SDS011;72327;50.842;4.450;2023-09-19T03:51:51;24.33;;;4.50;;
32976;SDS011;72327;50.842;4.450;2023-09-19T03:54:17;23.00;;;5.05;;
32976;SDS011;72327;50.842;4.450;2023-09-19T03:56:44;20.98;;;4.45;;
32976;SDS011;72327;50.842;4.450;2023-09-19T03:59:10;15.43;;;3.50;;
32976;SDS011;72327;50.842;4.450;2023-09-19T04:01:37;26.38;;;4.40;;
32976;SDS011;72327;50.842;4.450;2023-09-19T04:04:03;19.65;;;4.43;;
32976;SDS011;72327;50.842;4.450;2023-09-19T04:06:34;21.92;;;4.72;;
32976;SDS011;72327;50.842;4.450;2023-09-19T04:09:01;22.27;;;4.32;;
32976;SDS011;72327;50.842;4.450;2023-09-19T04:11:32;22.92;;;5.05;;
32976;SDS011;72327;50.842;4.450;2023-09-19T04:13:58;17.08;;;4.47;;
32976;SDS011;72327;50.842;4.450;2023-09-19T04:16:24;22.60;;;4.53;;
32976;SDS011;72327;50.842;4.450;2023-09-19T04:18:50;22.42;;;4.50;;
32976;SDS011;72327;50.842;4.450;2023-09-19T04:21:15;29.85;;;5.38;;
32976;SDS011;72327;50.842;4.450;2023-09-19T04:23:41;39.75;;;6.25;;
32976;SDS011;72327;50.842;4.450;2023-09-19T04:26:07;31.02;;;5.03;;
32976;SDS011;72327;50.842;4.450;2023-09-19T04:28:33;28.17;;;4.93;;
32976;SDS011;72327;50.842;4.450;2023-09-19T04:30:59;18.05;;;4.30;;
32976;SDS011;72327;50.842;4.450;2023-09-19T04:33:25;23.88;;;4.55;;
32976;SDS011;72327;50.842;4.450;2023-09-19T04:35:52;20.48;;;4.25;;
32976;SDS011;72327;50.842;4.450;2023-09-19T04:38:18;24.02;;;4.90;;
32976;SDS011;72327;50.842;4.450;2023-09-19T04:40:44;24.55;;;5.47;;
32976;SDS011;72327;50.842;4.450;2023-09-19T04:43:11;25.05;;;4.75;;
32976;SDS011;72327;50.842;4.450;2023-09-19T04:45:38;24.45;;;4.43;;
32976;SDS011;72327;50.842;4.450;2023-09-19T04:48:05;21.80;;;4.35;;
32976;SDS011;72327;50.842;4.450;2023-09-19T04:50:33;23.75;;;5.10;;
32976;SDS011;72327;50.842;4.450;2023-09-19T04:52:59;26.73;;;4.72;;
32976;SDS011;72327;50.842;4.450;2023-09-19T04:55:26;26.65;;;4.15;;
32976;SDS011;72327;50.842;4.450;2023-09-19T04:57:52;17.95;;;4.13;;
32976;SDS011;72327;50.842;4.450;2023-09-19T05:00:19;25.05;;;4.68;;
32976;SDS011;72327;50.842;4.450;2023-09-19T05:02:52;29.08;;;4.55;;
32976;SDS011;72327;50.842;4.450;2023-09-19T05:05:22;25.88;;;4.07;;
32976;SDS011;72327;50.842;4.450;2023-09-19T05:07:48;25.88;;;4.15;;
32976;SDS011;72327;50.842;4.450;2023-09-19T05:10:16;21.80;;;4.35;;
32976;SDS011;72327;50.842;4.450;2023-09-19T05:12:43;16.85;;;4.82;;
32976;SDS011;72327;50.842;4.450;2023-09-19T05:15:13;23.20;;;4.55;;
32976;SDS011;72327;50.842;4.450;2023-09-19T05:17:47;23.48;;;4.28;;
32976;SDS011;72327;50.842;4.450;2023-09-19T05:20:19;21.15;;;4.78;;
32976;SDS011;72327;50.842;4.450;2023-09-19T05:22:58;29.15;;;4.30;;
32976;SDS011;72327;50.842;4.450;2023-09-19T05:25:34;26.23;;;4.25;;
32976;SDS011;72327;50.842;4.450;2023-09-19T05:28:08;32.95;;;4.20;;
32976;SDS011;72327;50.842;4.450;2023-09-19T05:30:37;31.52;;;5.07;;
32976;SDS011;72327;50.842;4.450;2023-09-19T05:33:06;24.73;;;4.00;;
32976;SDS011;72327;50.842;4.450;2023-09-19T05:35:32;19.45;;;4.72;;
32976;SDS011;72327;50.842;4.450;2023-09-19T05:37:58;23.95;;;5.05;;
32976;SDS011;72327;50.842;4.450;2023-09-19T05:40:24;26.25;;;4.95;;
32976;SDS011;72327;50.842;4.450;2023-09-19T05:42:50;25.27;;;4.68;;
32976;SDS011;72327;50.842;4.450;2023-09-19T05:45:17;33.17;;;5.47;;
32976;SDS011;72327;50.842;4.450;2023-09-19T05:47:47;32.25;;;4.60;;
32976;SDS011;72327;50.842;4.450;2023-09-19T05:50:14;25.92;;;4.55;;
32976;SDS011;72327;50.842;4.450;2023-09-19T05:52:41;18.30;;;4.53;;
32976;SDS011;72327;50.842;4.450;2023-09-19T05:55:08;37.33;;;5.93;;
32976;SDS011;72327;50.842;4.450;2023-09-19T05:57:37;29.15;;;5.18;;
32976;SDS011;72327;50.842;4.450;2023-09-19T06:00:07;21.17;;;4.05;;
32976;SDS011;72327;50.842;4.450;2023-09-19T06:02:38;29.55;;;4.00;;
32976;SDS011;72327;50.842;4.450;2023-09-19T06:05:05;24.13;;;4.55;;
32976;SDS011;72327;50.842;4.450;2023-09-19T06:07:32;23.27;;;5.18;;
32976;SDS011;72327;50.842;4.450;2023-09-19T06:12:30;24.08;;;4.35;;
32976;SDS011;72327;50.842;4.450;2023-09-19T06:14:58;26.67;;;4.75;;
32976;SDS011;72327;50.842;4.450;2023-09-19T06:17:24;26.60;;;4.68;;
32976;SDS011;72327;50.842;4.450;2023-09-19T06:19:52;25.38;;;4.53;;
32976;SDS011;72327;50.842;4.450;2023-09-19T06:22:18;32.42;;;5.07;;
32976;SDS011;72327;50.842;4.450;2023-09-19T06:24:44;22.33;;;3.80;;
32976;SDS011;72327;50.842;4.450;2023-09-19T06:27:12;24.90;;;4.07;;
32976;SDS011;72327;50.842;4.450;2023-09-19T06:29:38;29.23;;;4.50;;
32976;SDS011;72327;50.842;4.450;2023-09-19T06:32:07;24.02;;;5.00;;
32976;SDS011;72327;50.842;4.450;2023-09-19T06:34:34;19.05;;;3.97;;
32976;SDS011;72327;50.842;4.450;2023-09-19T06:36:59;24.48;;;4.32;;
32976;SDS011;72327;50.842;4.450;2023-09-19T06:39:25;18.63;;;3.97;;
32976;SDS011;72327;50.842;4.450;2023-09-19T06:41:51;18.30;;;3.30;;
32976;SDS011;72327;50.842;4.450;2023-09-19T06:44:20;18.75;;;3.80;;
32976;SDS011;72327;50.842;4.450;2023-09-19T06:46:49;23.25;;;4.22;;
32976;SDS011;72327;50.842;4.450;2023-09-19T06:49:16;16.20;;;3.95;;
32976;SDS011;72327;50.842;4.450;2023-09-19T06:51:42;25.83;;;4.47;;
32976;SDS011;72327;50.842;4.450;2023-09-19T06:54:08;22.95;;;3.92;;
32976;SDS011;72327;50.842;4.450;2023-09-19T06:56:34;33.10;;;4.28;;
32976;SDS011;72327;50.842;4.450;2023-09-19T06:59:00;17.45;;;3.60;;
32976;SDS011;72327;50.842;4.450;2023-09-19T07:01:27;19.27;;;3.83;;
32976;SDS011;72327;50.842;4.450;2023-09-19T07:03:53;18.65;;;4.00;;
32976;SDS011;72327;50.842;4.450;2023-09-19T07:06:19;22.10;;;4.55;;
32976;SDS011;72327;50.842;4.450;2023-09-19T07:08:45;21.23;;;4.18;;
32976;SDS011;72327;50.842;4.450;2023-09-19T07:11:10;18.98;;;3.83;;
32976;SDS011;72327;50.842;4.450;2023-09-19T07:13:37;22.88;;;4.00;;
32976;SDS011;72327;50.842;4.450;2023-09-19T07:16:03;23.80;;;4.78;;
32976;SDS011;72327;50.842;4.450;2023-09-19T07:18:29;20.35;;;3.85;;
32976;SDS011;72327;50.842;4.450;2023-09-19T07:20:58;19.80;;;4.20;;
32976;SDS011;72327;50.842;4.450;2023-09-19T07:23:29;20.00;;;3.78;;
32976;SDS011;72327;50.842;4.450;2023-09-19T07:25:59;21.98;;;3.45;;
32976;SDS011;72327;50.842;4.450;2023-09-19T07:28:26;17.95;;;3.63;;
32976;SDS011;72327;50.842;4.450;2023-09-19T07:30:53;21.05;;;3.42;;
32976;SDS011;72327;50.842;4.450;2023-09-19T07:33:18;18.02;;;3.83;;
32976;SDS011;72327;50.842;4.450;2023-09-19T07:35:45;21.75;;;4.05;;
32976;SDS011;72327;50.842;4.450;2023-09-19T07:38:11;17.95;;;4.03;;
32976;SDS011;72327;50.842;4.450;2023-09-19T07:40:37;25.65;;;4.07;;
32976;SDS011;72327;50.842;4.450;2023-09-19T07:43:02;23.90;;;4.85;;
32976;SDS011;72327;50.842;4.450;2023-09-19T07:45:29;19.05;;;4.10;;
32976;SDS011;72327;50.842;4.450;2023-09-19T07:47:56;15.68;;;3.42;;
32976;SDS011;72327;50.842;4.450;2023-09-19T07:50:22;16.02;;;4.03;;
32976;SDS011;72327;50.842;4.450;2023-09-19T07:52:49;27.17;;;5.10;;
32976;SDS011;72327;50.842;4.450;2023-09-19T07:57:45;16.80;;;3.58;;
32976;SDS011;72327;50.842;4.450;2023-09-19T08:00:12;15.98;;;3.85;;
32976;SDS011;72327;50.842;4.450;2023-09-19T08:02:38;14.23;;;3.65;;
32976;SDS011;72327;50.842;4.450;2023-09-19T08:05:05;21.58;;;4.45;;
32976;SDS011;72327;50.842;4.450;2023-09-19T08:07:34;17.77;;;3.78;;
32976;SDS011;72327;50.842;4.450;2023-09-19T08:10:01;25.85;;;4.10;;
32976;SDS011;72327;50.842;4.450;2023-09-19T08:12:27;18.95;;;3.72;;
32976;SDS011;72327;50.842;4.450;2023-09-19T08:14:55;20.35;;;4.18;;
32976;SDS011;72327;50.842;4.450;2023-09-19T08:17:20;22.80;;;4.05;;
32976;SDS011;72327;50.842;4.450;2023-09-19T08:19:48;19.83;;;4.57;;
32976;SDS011;72327;50.842;4.450;2023-09-19T08:22:14;23.23;;;4.60;;
32976;SDS011;72327;50.842;4.450;2023-09-19T08:24:42;22.83;;;4.70;;
32976;SDS011;72327;50.842;4.450;2023-09-19T08:27:08;21.88;;;4.60;;
32976;SDS011;72327;50.842;4.450;2023-09-19T08:29:35;23.15;;;4.07;;
32976;SDS011;72327;50.842;4.450;2023-09-19T08:32:01;17.98;;;3.90;;
32976;SDS011;72327;50.842;4.450;2023-09-19T08:34:26;14.25;;;3.55;;
32976;SDS011;72327;50.842;4.450;2023-09-19T08:36:52;20.15;;;4.15;;
32976;SDS011;72327;50.842;4.450;2023-09-19T08:39:23;28.98;;;4.80;;
32976;SDS011;72327;50.842;4.450;2023-09-19T08:41:49;17.27;;;3.63;;
32976;SDS011;72327;50.842;4.450;2023-09-19T08:44:14;20.45;;;3.88;;
32976;SDS011;72327;50.842;4.450;2023-09-19T08:46:41;20.27;;;3.75;;
32976;SDS011;72327;50.842;4.450;2023-09-19T08:49:23;25.58;;;4.70;;
32976;SDS011;72327;50.842;4.450;2023-09-19T08:52:05;26.30;;;4.13;;
32976;SDS011;72327;50.842;4.450;2023-09-19T08:54:41;24.77;;;4.07;;
32976;SDS011;72327;50.842;4.450;2023-09-19T08:57:08;25.38;;;4.22;;
32976;SDS011;72327;50.842;4.450;2023-09-19T08:59:39;17.35;;;4.15;;
32976;SDS011;72327;50.842;4.450;2023-09-19T09:02:13;21.48;;;3.95;;
32976;SDS011;72327;50.842;4.450;2023-09-19T09:04:40;23.65;;;4.68;;
32976;SDS011;72327;50.842;4.450;2023-09-19T09:07:11;16.25;;;3.75;;
32976;SDS011;72327;50.842;4.450;2023-09-19T09:09:41;24.67;;;4.82;;
32976;SDS011;72327;50.842;4.450;2023-09-19T09:12:10;23.40;;;3.92;;
32976;SDS011;72327;50.842;4.450;2023-09-19T09:14:38;23.63;;;3.47;;
32976;SDS011;72327;50.842;4.450;2023-09-19T09:17:04;15.48;;;3.10;;
32976;SDS011;72327;50.842;4.450;2023-09-19T09:19:30;16.27;;;3.90;;
32976;SDS011;72327;50.842;4.450;2023-09-19T09:22:09;12.27;;;3.05;;
32976;SDS011;72327;50.842;4.450;2023-09-19T09:24:36;22.53;;;4.20;;
32976;SDS011;72327;50.842;4.450;2023-09-19T09:27:15;14.27;;;3.97;;
32976;SDS011;72327;50.842;4.450;2023-09-19T09:29:44;17.95;;;4.00;;
32976;SDS011;72327;50.842;4.450;2023-09-19T09:34:57;22.38;;;4.32;;
32976;SDS011;72327;50.842;4.450;2023-09-19T09:37:24;12.32;;;2.95;;
32976;SDS011;72327;50.842;4.450;2023-09-19T09:39:52;12.10;;;2.88;;
32976;SDS011;72327;50.842;4.450;2023-09-19T09:42:36;11.98;;;2.85;;
32976;SDS011;72327;50.842;4.450;2023-09-19T09:45:14;16.17;;;3.38;;
32976;SDS011;72327;50.842;4.450;2023-09-19T09:48:01;14.10;;;3.47;;
32976;SDS011;72327;50.842;4.450;2023-09-19T09:50:45;21.55;;;3.17;;
32976;SDS011;72327;50.842;4.450;2023-09-19T09:53:25;15.27;;;3.58;;
32976;SDS011;72327;50.842;4.450;2023-09-19T10:00:56;20.08;;;2.92;;
32976;SDS011;72327;50.842;4.450;2023-09-19T10:03:32;18.67;;;2.97;;
32976;SDS011;72327;50.842;4.450;2023-09-19T10:06:05;20.55;;;3.60;;
32976;SDS011;72327;50.842;4.450;2023-09-19T10:08:36;10.52;;;3.15;;
32976;SDS011;72327;50.842;4.450;2023-09-19T10:11:13;18.48;;;3.05;;
32976;SDS011;72327;50.842;4.450;2023-09-19T10:13:41;14.05;;;2.67;;
32976;SDS011;72327;50.842;4.450;2023-09-19T10:16:11;12.38;;;2.35;;
32976;SDS011;72327;50.842;4.450;2023-09-19T10:18:39;14.07;;;2.60;;
32976;SDS011;72327;50.842;4.450;2023-09-19T10:21:08;11.17;;;2.20;;
32976;SDS011;72327;50.842;4.450;2023-09-19T10:23:35;16.33;;;3.38;;
32976;SDS011;72327;50.842;4.450;2023-09-19T10:26:02;13.77;;;2.75;;
32976;SDS011;72327;50.842;4.450;2023-09-19T10:28:30;15.05;;;2.30;;
32976;SDS011;72327;50.842;4.450;2023-09-19T10:30:57;14.38;;;3.22;;
32976;SDS011;72327;50.842;4.450;2023-09-19T10:33:24;20.30;;;3.55;;
32976;SDS011;72327;50.842;4.450;2023-09-19T10:35:50;12.68;;;2.38;;
32976;SDS011;72327;50.842;4.450;2023-09-19T10:38:22;7.63;;;1.95;;
32976;SDS011;72327;50.842;4.450;2023-09-19T10:40:50;14.02;;;2.67;;
32976;SDS011;72327;50.842;4.450;2023-09-19T10:43:18;13.15;;;2.15;;
32976;SDS011;72327;50.842;4.450;2023-09-19T10:45:45;12.20;;;2.38;;
32976;SDS011;72327;50.842;4.450;2023-09-19T10:48:14;10.30;;;2.92;;
32976;SDS011;72327;50.842;4.450;2023-09-19T10:53:24;17.27;;;2.00;;
32976;SDS011;72327;50.842;4.450;2023-09-19T10:55:55;11.98;;;2.83;;
32976;SDS011;72327;50.842;4.450;2023-09-19T10:58:28;13.35;;;2.28;;
32976;SDS011;72327;50.842;4.450;2023-09-19T11:01:04;10.23;;;2.03;;
32976;SDS011;72327;50.842;4.450;2023-09-19T11:03:32;10.77;;;2.35;;
32976;SDS011;72327;50.842;4.450;2023-09-19T11:08:30;11.75;;;2.10;;
32976;SDS011;72327;50.842;4.450;2023-09-19T11:11:58;8.90;;;2.10;;
32976;SDS011;72327;50.842;4.450;2023-09-19T11:30:37;6.43;;;1.60;;
32976;SDS011;72327;50.842;4.450;2023-09-19T11:38:58;10.38;;;1.85;;
32976;SDS011;72327;50.842;4.450;2023-09-19T11:43:54;10.65;;;1.63;;
32976;SDS011;72327;50.842;4.450;2023-09-19T11:49:17;12.25;;;2.13;;
32976;SDS011;72327;50.842;4.450;2023-09-19T11:51:48;9.95;;;1.30;;
32976;SDS011;72327;50.842;4.450;2023-09-19T11:54:19;9.98;;;1.67;;
32976;SDS011;72327;50.842;4.450;2023-09-19T11:56:53;7.63;;;1.65;;
32976;SDS011;72327;50.842;4.450;2023-09-19T11:59:22;9.77;;;1.42;;
32976;SDS011;72327;50.842;4.450;2023-09-19T12:01:53;5.15;;;1.60;;
32976;SDS011;72327;50.842;4.450;2023-09-19T12:04:33;14.05;;;1.75;;
32976;SDS011;72327;50.842;4.450;2023-09-19T12:07:03;10.00;;;1.98;;
32976;SDS011;72327;50.842;4.450;2023-09-19T12:09:30;7.70;;;1.55;;
32976;SDS011;72327;50.842;4.450;2023-09-19T12:11:57;8.52;;;2.08;;
32976;SDS011;72327;50.842;4.450;2023-09-19T12:14:23;9.48;;;1.80;;
32976;SDS011;72327;50.842;4.450;2023-09-19T12:16:51;6.20;;;1.65;;
32976;SDS011;72327;50.842;4.450;2023-09-19T12:19:21;13.98;;;1.70;;
32976;SDS011;72327;50.842;4.450;2023-09-19T12:22:00;12.70;;;1.60;;
32976;SDS011;72327;50.842;4.450;2023-09-19T12:24:31;13.18;;;1.95;;
32976;SDS011;72327;50.842;4.450;2023-09-19T12:27:04;12.02;;;1.42;;
32976;SDS011;72327;50.842;4.450;2023-09-19T12:29:32;8.43;;;1.55;;
32976;SDS011;72327;50.842;4.450;2023-09-19T12:32:07;8.65;;;1.42;;
32976;SDS011;72327;50.842;4.450;2023-09-19T12:34:32;9.00;;;1.40;;
32976;SDS011;72327;50.842;4.450;2023-09-19T12:37:13;8.52;;;1.13;;
32976;SDS011;72327;50.842;4.450;2023-09-19T12:42:20;12.70;;;1.10;;
32976;SDS011;72327;50.842;4.450;2023-09-19T12:44:48;8.07;;;1.60;;
32976;SDS011;72327;50.842;4.450;2023-09-19T12:47:20;6.53;;;1.52;;
32976;SDS011;72327;50.842;4.450;2023-09-19T12:52:46;12.00;;;1.67;;
32976;SDS011;72327;50.842;4.450;2023-09-19T12:58:11;7.43;;;1.42;;
32976;SDS011;72327;50.842;4.450;2023-09-19T13:00:41;8.05;;;1.95;;
32976;SDS011;72327;50.842;4.450;2023-09-19T13:03:16;6.78;;;1.88;;
32976;SDS011;72327;50.842;4.450;2023-09-19T13:05:59;7.25;;;1.15;;
32976;SDS011;72327;50.842;4.450;2023-09-19T13:08:36;9.30;;;1.40;;
32976;SDS011;72327;50.842;4.450;2023-09-19T13:11:13;6.43;;;1.75;;
32976;SDS011;72327;50.842;4.450;2023-09-19T13:13:41;8.70;;;1.95;;
32976;SDS011;72327;50.842;4.450;2023-09-19T13:16:10;7.28;;;1.33;;
32976;SDS011;72327;50.842;4.450;2023-09-19T13:18:57;4.60;;;1.45;;
32976;SDS011;72327;50.842;4.450;2023-09-19T13:21:30;12.75;;;1.85;;
32976;SDS011;72327;50.842;4.450;2023-09-19T13:24:19;6.85;;;1.75;;
32976;SDS011;72327;50.842;4.450;2023-09-19T13:26:45;9.15;;;1.75;;
32976;SDS011;72327;50.842;4.450;2023-09-19T13:29:11;9.77;;;1.70;;
32976;SDS011;72327;50.842;4.450;2023-09-19T13:31:37;10.30;;;2.08;;
32976;SDS011;72327;50.842;4.450;2023-09-19T13:34:06;6.25;;;1.35;;
32976;SDS011;72327;50.842;4.450;2023-09-19T13:36:32;14.90;;;1.63;;
32976;SDS011;72327;50.842;4.450;2023-09-19T13:38:58;13.02;;;2.67;;
32976;SDS011;72327;50.842;4.450;2023-09-19T13:41:25;15.13;;;1.52;;
32976;SDS011;72327;50.842;4.450;2023-09-19T13:43:51;7.57;;;1.55;;
32976;SDS011;72327;50.842;4.450;2023-09-19T13:46:17;9.18;;;1.52;;
32976;SDS011;72327;50.842;4.450;2023-09-19T13:48:50;8.65;;;1.80;;
32976;SDS011;72327;50.842;4.450;2023-09-19T13:51:17;4.43;;;1.40;;
32976;SDS011;72327;50.842;4.450;2023-09-19T13:53:44;12.40;;;2.25;;
32976;SDS011;72327;50.842;4.450;2023-09-19T13:56:09;5.05;;;1.23;;
32976;SDS011;72327;50.842;4.450;2023-09-19T13:58:36;7.90;;;1.70;;
32976;SDS011;72327;50.842;4.450;2023-09-19T14:01:01;7.50;;;1.40;;
32976;SDS011;72327;50.842;4.450;2023-09-19T14:03:28;6.13;;;1.30;;
32976;SDS011;72327;50.842;4.450;2023-09-19T14:05:54;9.90;;;1.48;;
32976;SDS011;72327;50.842;4.450;2023-09-19T14:08:19;8.48;;;2.10;;
32976;SDS011;72327;50.842;4.450;2023-09-19T14:10:45;11.80;;;1.73;;
32976;SDS011;72327;50.842;4.450;2023-09-19T14:13:11;7.25;;;1.58;;
32976;SDS011;72327;50.842;4.450;2023-09-19T14:15:38;8.65;;;2.00;;
32976;SDS011;72327;50.842;4.450;2023-09-19T14:18:04;6.47;;;2.05;;
32976;SDS011;72327;50.842;4.450;2023-09-19T14:20:30;11.57;;;2.30;;
32976;SDS011;72327;50.842;4.450;2023-09-19T14:22:56;7.03;;;2.08;;
32976;SDS011;72327;50.842;4.450;2023-09-19T14:25:23;10.23;;;1.98;;
32976;SDS011;72327;50.842;4.450;2023-09-19T14:27:50;7.65;;;1.55;;
32976;SDS011;72327;50.842;4.450;2023-09-19T14:30:16;6.63;;;2.13;;
32976;SDS011;72327;50.842;4.450;2023-09-19T14:32:42;8.27;;;2.00;;
32976;SDS011;72327;50.842;4.450;2023-09-19T14:35:08;9.15;;;2.05;;
32976;SDS011;72327;50.842;4.450;2023-09-19T14:37:35;7.35;;;1.90;;
32976;SDS011;72327;50.842;4.450;2023-09-19T14:40:00;11.85;;;2.38;;
32976;SDS011;72327;50.842;4.450;2023-09-19T14:42:32;8.57;;;1.80;;
32976;SDS011;72327;50.842;4.450;2023-09-19T14:44:57;9.20;;;2.08;;
32976;SDS011;72327;50.842;4.450;2023-09-19T14:47:23;8.57;;;2.00;;
32976;SDS011;72327;50.842;4.450;2023-09-19T14:49:48;10.02;;;2.00;;
32976;SDS011;72327;50.842;4.450;2023-09-19T14:52:14;9.82;;;1.65;;
32976;SDS011;72327;50.842;4.450;2023-09-19T14:54:40;7.95;;;1.55;;
32976;SDS011;72327;50.842;4.450;2023-09-19T14:57:06;12.55;;;2.70;;
32976;SDS011;72327;50.842;4.450;2023-09-19T14:59:33;8.68;;;1.98;;
32976;SDS011;72327;50.842;4.450;2023-09-19T15:02:02;6.05;;;1.80;;
32976;SDS011;72327;50.842;4.450;2023-09-19T15:04:31;13.35;;;1.98;;
32976;SDS011;72327;50.842;4.450;2023-09-19T15:06:58;12.88;;;2.03;;
32976;SDS011;72327;50.842;4.450;2023-09-19T15:09:25;9.35;;;1.80;;
32976;SDS011;72327;50.842;4.450;2023-09-19T15:11:54;13.70;;;2.45;;
32976;SDS011;72327;50.842;4.450;2023-09-19T15:14:20;11.60;;;2.90;;
32976;SDS011;72327;50.842;4.450;2023-09-19T15:16:47;8.00;;;2.08;;
32976;SDS011;72327;50.842;4.450;2023-09-19T15:19:13;8.27;;;2.13;;
32976;SDS011;72327;50.842;4.450;2023-09-19T15:21:40;10.82;;;2.15;;
32976;SDS011;72327;50.842;4.450;2023-09-19T15:24:06;10.43;;;2.05;;
32976;SDS011;72327;50.842;4.450;2023-09-19T15:26:35;8.83;;;2.83;;
32976;SDS011;72327;50.842;4.450;2023-09-19T15:29:04;10.00;;;2.35;;
32976;SDS011;72327;50.842;4.450;2023-09-19T15:31:31;7.40;;;2.35;;
32976;SDS011;72327;50.842;4.450;2023-09-19T15:33:57;11.60;;;2.17;;
32976;SDS011;72327;50.842;4.450;2023-09-19T15:36:22;8.70;;;2.17;;
32976;SDS011;72327;50.842;4.450;2023-09-19T15:38:55;10.55;;;2.67;;
32976;SDS011;72327;50.842;4.450;2023-09-19T15:41:26;14.30;;;2.10;;
32976;SDS011;72327;50.842;4.450;2023-09-19T15:43:56;15.32;;;2.33;;
32976;SDS011;72327;50.842;4.450;2023-09-19T15:46:26;16.45;;;2.60;;
32976;SDS011;72327;50.842;4.450;2023-09-19T15:48:54;14.48;;;2.35;;
32976;SDS011;72327;50.842;4.450;2023-09-19T15:51:23;12.70;;;2.17;;
32976;SDS011;72327;50.842;4.450;2023-09-19T15:53:54;13.20;;;2.28;;
32976;SDS011;72327;50.842;4.450;2023-09-19T15:56:22;11.55;;;1.92;;
32976;SDS011;72327;50.842;4.450;2023-09-19T15:58:50;11.75;;;2.13;;